Weather at Al Qurm Resort Heliport

Public forecast

Using degrees Celsius for public forecast. Weather courtesy of forecast.io.

Closest aviation weather report (METAR) to Al Qurm Resort Heliport

Closest report is Al Bateen Executive Airport, 3.0 nm (5.5 km) ENE.

2024/06/15 16:00 (retrieved 14 minutes ago)

OMAD 151600Z 02008KT CAVOK 35/21 Q0998 NOSIG

Closest aviation forecast (TAF) to Al Qurm Resort Heliport

Closest forecast is Al Bateen Executive Airport, 3.0 nm (5.5 km) ENE.

2024/06/15 12:00 (retrieved 4 hours ago)

TAF OMAD 151100Z 1512/1618 33011KT CAVOK BECMG 1517/1519 09005KT BECMG 1607/1609 34013KT